• Join FlightAware (Why Join?)
  • Login
  • US Flag 
07:31AM EDT


 

Airport Tracker/Info


-or-


 

Live Flight TrackerFlight Track Log ✈ SWA414 ✈ 22-Aug-2013 ✈ KLAS - KMDW

Flight Track Log - Related Links

Times and Time Zones

All times are in EDT time to prevent confusion due to time zone crossing. See the SWA414 flight status page for this flight to view local times or setup timezone preferences in your user account.

Time Position Orientation Groundspeed Altitude Reporting Facility
EDT Latitude Longitude Course Direction KTS MPH feet Rate Location/Type
02:55PM 36.0760 -115.1650 270° West 185 213 2,800  Level FlightAware
02:56PM 36.0770 -115.1870 273° West 191 220 3,600 1,620 Climbing FlightAware
02:56PM 36.0770 -115.2050 270° West 216 249 3,800 240 Climbing FlightAware
02:56PM 36.0760 -115.2360 268° West 219 252 3,800 1,620 Level FlightAware
02:57PM 36.0820 -115.2690 283° West 249 287 5,100 4,080 Climbing FlightAware
02:57PM 36.0880 -115.2770 313° West 249 287 5,500 2,580 Climbing FlightAware
02:57PM 36.0950 -115.2840 321° Northwest 250 288 5,800 2,460 Climbing FlightAware
02:57PM 36.1000 -115.2870 334° Northwest 251 289 6,000 2,520 Climbing FlightAware
02:57PM 36.1120 -115.2900 349° North 252 290 6,400 2,160 Climbing FlightAware
02:58PM 36.1320 -115.2950 349° North 257 296 7,100 2,100 Climbing FlightAware
02:58PM 36.1570 -115.2830 21° North 264 304 7,900 2,400 Climbing FlightAware
02:58PM 36.1640 -115.2710 54° Northeast 267 307 8,300 2,400 Climbing FlightAware
02:58PM 36.1740 -115.2460 64° Northeast 272 313 9,000 1,680 Climbing FlightAware
02:59PM 36.1830 -115.2260 61° Northeast 289 333 9,200 1,440 Climbing FlightAware
02:59PM 36.1930 -115.1880 72° East 303 349 9,900 1,560 Climbing FlightAware
03:00PM 36.1970 -115.1310 85° East 330 380 10,700 1,200 Climbing FlightAware
03:00PM 36.1970 -115.0640 90° East 366 421 11,200 1,320 Climbing FlightAware
03:01PM 36.1980 -114.9900 89° East 387 445 12,200 2,040 Climbing FlightAware
03:01PM 36.1990 -114.9060 89° East 394 453 13,700 2,280 Climbing FlightAware
03:02PM 36.2000 -114.8220 89° East 400 460 15,100 1,380 Climbing FlightAware
03:02PM 36.2010 -114.7530 89° East 402 463 15,400 2,040 Climbing FlightAware
03:03PM 36.1990 -114.6610 92° East 417 480 17,500 2,820 Climbing FlightAware
03:04PM 36.1980 -114.5740 91° East 422 486 18,800 2,040 Climbing FlightAware
03:04PM 36.1960 -114.5060 92° East 425 489 19,700 1,920 Climbing FlightAware
03:05PM 36.1870 -114.4310 98° East 432 497 20,700 1,500 Climbing FlightAware
03:05PM 36.1890 -114.3340 89° East 447 514 21,500 1,380 Climbing FlightAware
03:06PM 36.1930 -114.2560 86° East 455 524 22,300 1,320 Climbing FlightAware
03:06PM 36.1940 -114.2110 88° East 458 527 22,600 1,440 Climbing FlightAware
03:07PM 36.1810 -114.1160 100° East 462 532 23,600 1,620 Climbing FlightAware
03:07PM 36.1730 -114.0320 97° East 468 539 24,500 1,500 Climbing FlightAware
03:08PM 36.1810 -113.9470 83° East 475 547 25,300 1,380 Climbing FlightAware
03:08PM 36.2010 -113.8430 77° East 481 554 26,200 1,260 Climbing FlightAware
03:09PM 36.2170 -113.7530 78° East 485 558 26,800 1,080 Climbing FlightAware
03:10PM 36.2350 -113.6560 77° East 490 564 27,500 1,200 Climbing FlightAware
03:10PM 36.2500 -113.5740 77° East 490 564 28,200 1,560 Climbing FlightAware
03:11PM 36.2700 -113.4640 77° East 487 560 29,300 1,500 Climbing FlightAware
03:11PM 36.2880 -113.3630 78° East 484 557 30,100 1,380 Climbing FlightAware
03:12PM 36.3040 -113.2690 78° East 480 552 31,000 1,380 Climbing FlightAware
03:13PM 36.3300 -113.1780 70° East 482 555 31,800 1,200 Climbing FlightAware
03:13PM 36.3610 -113.0930 66° East 483 556 32,400 1,020 Climbing FlightAware
03:14PM 36.3950 -113.0030 65° Northeast 483 556 33,000 960 Climbing FlightAware
03:14PM 36.4240 -112.9260 65° Northeast 485 558 33,500 900 Climbing FlightAware
03:15PM 36.4610 -112.8250 65° Northeast 485 558 34,100 900 Climbing FlightAware
03:15PM 36.4900 -112.7450 66° East 485 558 34,600 720 Climbing FlightAware
03:16PM 36.5280 -112.6410 66° East 485 558 35,000 300 Climbing FlightAware
03:17PM 36.5590 -112.5580 65° Northeast 486 559 35,000  Level FlightAware
03:17PM 36.5930 -112.4650 65° Northeast 485 558 35,000  Level FlightAware
03:18PM 36.6220 -112.3840 66° East 483 556 35,000  Level FlightAware
03:18PM 36.6570 -112.2890 65° Northeast 483 556 35,000  Level FlightAware
03:19PM 36.6900 -112.1960 66° East 483 556 35,000  Level FlightAware
03:20PM 36.7190 -112.1160 66° East 482 555 35,000  Level FlightAware
03:20PM 36.7490 -112.0320 66° East 482 555 35,000  Level FlightAware
03:21PM 36.7810 -111.9430 66° East 483 556 35,000  Level FlightAware
03:21PM 36.8130 -111.8540 66° East 483 556 35,000  Level FlightAware
03:22PM 36.8410 -111.7770 66° East 483 556 35,000  Level FlightAware
03:22PM 36.8770 -111.6750 66° East 484 557 35,000  Level FlightAware
03:23PM 36.9110 -111.5800 66° East 483 556 35,000  Level FlightAware
03:24PM 36.9420 -111.4930 66° East 484 557 35,000  Level FlightAware
03:24PM 36.9740 -111.4010 66° East 482 555 35,000  Level FlightAware
03:25PM 37.0100 -111.2980 66° East 482 555 35,000  Level FlightAware
03:25PM 37.0420 -111.2070 66° East 482 555 35,000  Level FlightAware
03:26PM 37.0720 -111.1210 66° East 483 556 35,000  Level FlightAware
03:27PM 37.1040 -111.0290 66° East 483 556 35,000  Level FlightAware
03:27PM 37.1350 -110.9410 66° East 481 554 35,000  Level FlightAware
03:28PM 37.1630 -110.8620 66° East 482 555 35,000  Level FlightAware
03:28PM 37.1900 -110.7830 67° East 482 555 35,000  Level FlightAware
03:29PM 37.2180 -110.7050 66° East 482 555 35,000  Level FlightAware
03:30PM 37.2460 -110.6270 66° East 482 555 35,000  Level FlightAware
03:30PM 37.2740 -110.5480 66° East 482 555 35,000  Level FlightAware
03:31PM 37.3010 -110.4700 66° East 482 555 35,000  Level FlightAware
03:31PM 37.3310 -110.3870 66° East 482 555 35,000  Level FlightAware
03:32PM 37.3580 -110.3090 66° East 482 555 35,000  Level FlightAware
03:33PM 37.3860 -110.2300 66° East 482 555 35,000  Level FlightAware
03:33PM 37.4450 -110.0310 69° East 477 549 35,000  Level FlightAware
03:34PM 37.5036 -109.8567 69° East 476 548 35,000  Level Denver Center
03:35PM 37.5522 -109.7103 67° East 472 543 35,000  Level Denver Center
03:37PM 37.6178 -109.5136 67° East 475 547 35,000  Level Denver Center
03:38PM 37.6667 -109.3658 67° East 477 549 35,000  Level Denver Center
03:39PM 37.7231 -109.1939 67° East 473 544 35,000  Level Denver Center
03:40PM 37.7714 -109.0442 68° East 479 551 35,000  Level Denver Center
03:41PM 37.8292 -108.8733 67° East 473 544 35,000  Level Denver Center
03:42PM 37.8986 -108.6767 66° East 478 550 35,000  Level Denver Center
03:43PM 37.9492 -108.5283 67° East 479 551 35,000  Level Denver Center
03:44PM 38.0000 -108.3806 66° East 477 549 35,000  Level Denver Center
03:45PM 38.0592 -108.2075 66° East 477 549 35,000  Level Denver Center
03:46PM 38.1131 -108.0511 66° East 482 555 35,000  Level Denver Center
03:47PM 38.1708 -107.8800 67° East 475 547 35,000  Level Denver Center
03:48PM 38.2286 -107.7381 63° Northeast 474 545 35,000  Level Denver Center
03:49PM 38.3025 -107.5778 60° Northeast 472 543 35,000  Level Denver Center
03:50PM 38.3550 -107.4622 60° Northeast 473 544 35,000  Level Denver Center
03:51PM 38.4175 -107.2647 68° East 473 544 35,000  Level Denver Center
03:52PM 38.4464 -107.1192 76° East 469 540 35,000 60 Level Denver Center
03:53PM 38.4783 -106.9558 76° East 474 545 35,200 360 Climbing Denver Center
03:54PM 38.5033 -106.8261 76° East 474 545 35,800 780 Climbing Denver Center
03:55PM 38.5475 -106.5981 76° East 474 545 36,900 540 Climbing Denver Center
03:57PM 38.5797 -106.4350 76° East 475 547 37,000  Climbing Denver Center
03:58PM 38.6103 -106.2733 76° East 472 543 37,000  Level Denver Center
03:59PM 38.6444 -106.0967 76° East 470 541 37,000  Level Denver Center
04:05PM 38.8270 -105.1080 76° East 467 537 37,000  Level FlightAware
04:05PM 38.8310 -105.0870 76° East 467 537 37,000  Level FlightAware
04:05PM 38.8350 -105.0650 77° East 467 537 37,000  Level FlightAware
04:05PM 38.8390 -105.0440 76° East 467 537 37,000  Level FlightAware
04:05PM 38.8410 -105.0340 76° East 467 537 37,000  Level FlightAware
04:05PM 38.8450 -105.0120 77° East 467 537 37,000  Level FlightAware
04:05PM 38.8480 -104.9910 80° East 467 537 37,000  Level FlightAware
04:06PM 38.8540 -104.9580 77° East 466 536 37,000  Level FlightAware
04:06PM 38.8580 -104.9350 77° East 466 536 37,000  Level FlightAware
04:06PM 38.8640 -104.9040 76° East 466 536 37,000  Level FlightAware
04:06PM 38.8660 -104.8940 76° East 466 536 37,000  Level FlightAware
04:06PM 38.8720 -104.8610 77° East 465 535 37,000  Level FlightAware
04:06PM 38.8750 -104.8390 80° East 466 536 37,000  Level FlightAware
04:06PM 38.8790 -104.8180 76° East 466 536 37,000  Level FlightAware
04:06PM 38.8810 -104.8070 77° East 466 536 37,000  Level FlightAware
04:07PM 38.8850 -104.7850 77° East 466 536 37,000  Level FlightAware
04:07PM 38.8890 -104.7620 77° East 466 536 37,000  Level FlightAware
04:07PM 38.8930 -104.7410 76° East 466 536 37,000  Level FlightAware
04:07PM 38.8940 -104.7320 82° East 466 536 37,000  Level FlightAware
04:07PM 38.9020 -104.6890 77° East 466 536 37,000  Level FlightAware
04:07PM 38.9060 -104.6650 78° East 465 535 37,000  Level FlightAware
04:07PM 38.9080 -104.6550 76° East 465 535 37,000  Level FlightAware
04:08PM 38.9120 -104.6340 76° East 465 535 37,000  Level FlightAware
04:08PM 38.9130 -104.6240 83° East 465 535 37,000  Level FlightAware
04:08PM 38.9170 -104.6020 77° East 465 535 37,000  Level FlightAware
04:08PM 38.9340 -104.5050 77° East 465 535 37,000  Level FlightAware
04:09PM 38.9500 -104.4140 77° East 466 536 37,000  Level FlightAware
04:09PM 38.9650 -104.3260 78° East 464 534 37,000  Level FlightAware
04:10PM 38.9830 -104.2200 78° East 464 534 37,000  Level FlightAware
04:11PM 39.0000 -104.1230 77° East 465 535 37,000  Level FlightAware
04:11PM 39.0150 -104.0370 77° East 466 536 37,000  Level FlightAware
04:12PM 39.0320 -103.9340 78° East 467 537 37,000  Level FlightAware
04:12PM 39.0490 -103.8360 77° East 468 539 37,000  Level FlightAware
04:13PM 39.0630 -103.7540 78° East 469 540 37,000  Level FlightAware
04:14PM 39.0800 -103.6490 78° East 470 541 37,000  Level FlightAware
04:14PM 39.0950 -103.5570 78° East 471 542 37,000  Level FlightAware
04:15PM 39.1120 -103.4580 77° East 472 543 37,000  Level FlightAware
04:15PM 39.1270 -103.3620 79° East 472 543 37,000  Level FlightAware
04:16PM 39.1420 -103.2720 78° East 472 543 37,000  Level FlightAware
04:16PM 39.1580 -103.1760 78° East 471 542 37,000  Level FlightAware
04:17PM 39.1740 -103.0740 79° East 470 541 37,000  Level FlightAware
04:18PM 39.1920 -102.9650 78° East 470 541 37,000  Level FlightAware
04:18PM 39.2060 -102.8790 78° East 470 541 37,000  Level FlightAware
04:19PM 39.2200 -102.7920 78° East 470 541 37,000  Level FlightAware
04:20PM 39.2350 -102.7060 77° East 470 541 37,000  Level FlightAware
04:20PM 39.2490 -102.6190 78° East 470 541 37,000  Level FlightAware
04:21PM 39.2630 -102.5350 78° East 470 541 37,000  Level FlightAware
04:21PM 39.2760 -102.4510 79° East 470 541 37,000  Level FlightAware
04:22PM 39.2910 -102.3650 77° East 470 541 37,000  Level FlightAware
04:23PM 39.3040 -102.2810 79° East 470 541 37,000  Level FlightAware
04:23PM 39.3190 -102.1940 77° East 470 541 37,000  Level FlightAware
04:24PM 39.3320 -102.1100 79° East 470 541 37,000  Level FlightAware
04:25PM 39.3460 -102.0260 78° East 470 541 37,000  Level FlightAware
04:25PM 39.3610 -101.9400 77° East 470 541 37,000  Level FlightAware
04:26PM 39.3750 -101.8480 79° East 470 541 37,000  Level FlightAware
04:26PM 39.3890 -101.7640 78° East 470 541 37,000  Level FlightAware
04:27PM 39.4030 -101.6800 78° East 470 541 37,000  Level FlightAware
04:28PM 39.4800 -101.3056 78° East 467 537 37,000  Level Denver Center
04:29PM 39.5108 -101.1517 75° East 465 535 37,000  Level Denver Center
04:30PM 39.5461 -100.9719 76° East 464 534 37,000  Level Denver Center
04:31PM 39.5767 -100.8156 76° East 467 537 37,000  Level Denver Center
04:32PM 39.6108 -100.6350 76° East 465 535 37,000  Level Denver Center
04:33PM 39.6508 -100.4258 76° East 469 540 37,000  Level Denver Center
04:34PM 39.6803 -100.2694 76° East 468 539 37,000  Level Denver Center
04:35PM 39.7156 -100.0842 76° East 472 543 37,000  Level Denver Center
04:36PM 39.7436 -99.9281 77° East 477 549 37,000  Level Denver Center
04:37PM 39.7742 -99.7639 76° East 472 543 37,000  Level Denver Center
04:39PM 39.8039 -99.5975 77° East 472 543 37,000  Level Denver Center
04:40PM 39.8400 -99.3994 77° East 471 542 37,000  Level Denver Center
04:46PM 40.0300 -98.3170 77° East 474 545 37,000  Level FlightAware
04:47PM 40.0460 -98.2200 78° East 477 549 37,000  Level FlightAware
04:47PM 40.0620 -98.1280 77° East 478 550 37,000  Level FlightAware
04:48PM 40.0800 -98.0220 77° East 481 554 37,000  Level FlightAware
04:48PM 40.0990 -97.9050 78° East 483 556 37,000  Level FlightAware
04:49PM 40.1140 -97.8120 78° East 484 557 37,000  Level FlightAware
04:50PM 40.1330 -97.7000 77° East 485 558 37,000  Level FlightAware
04:50PM 40.1490 -97.6030 78° East 486 559 37,000  Level FlightAware
04:51PM 40.1720 -97.4630 78° East 486 559 37,000  Level FlightAware
04:52PM 40.1870 -97.3650 79° East 486 559 37,000  Level FlightAware
04:52PM 40.2060 -97.2480 78° East 485 558 37,000  Level FlightAware
04:53PM 40.2260 -97.1230 78° East 483 556 37,000  Level FlightAware
04:54PM 40.2420 -97.0180 79° East 482 555 37,000  Level FlightAware
04:54PM 40.2580 -96.9170 78° East 482 555 37,000  Level FlightAware
04:55PM 40.2720 -96.8290 78° East 481 554 37,000  Level FlightAware
04:55PM 40.2890 -96.7210 78° East 479 551 37,000  Level FlightAware
04:56PM 40.3040 -96.6230 79° East 479 551 37,000  Level FlightAware
04:57PM 40.3200 -96.5170 79° East 480 552 37,000  Level FlightAware
04:57PM 40.3350 -96.4210 78° East 480 552 37,000  Level FlightAware
04:58PM 40.3490 -96.3250 79° East 481 554 37,000  Level FlightAware
04:58PM 40.3650 -96.2240 78° East 482 555 37,000  Level FlightAware
04:59PM 40.3800 -96.1210 79° East 482 555 37,000  Level FlightAware
04:59PM 40.3950 -96.0170 79° East 482 555 37,000  Level FlightAware
05:00PM 40.4090 -95.9260 79° East 482 555 37,000  Level FlightAware
05:01PM 40.4250 -95.8170 79° East 483 556 37,000  Level FlightAware
05:01PM 40.4380 -95.7300 79° East 484 557 37,000  Level FlightAware
05:02PM 40.4530 -95.6240 79° East 484 557 37,000  Level FlightAware
05:02PM 40.4690 -95.5160 79° East 484 557 37,000  Level FlightAware
05:03PM 40.4830 -95.4170 79° East 484 557 37,000  Level FlightAware
05:04PM 40.4980 -95.3110 79° East 484 557 37,000  Level FlightAware
05:04PM 40.5110 -95.2220 79° East 484 557 37,000  Level FlightAware
05:05PM 40.5260 -95.1130 80° East 485 558 37,000  Level FlightAware
05:05PM 40.5380 -95.0240 80° East 484 557 37,000  Level FlightAware
05:06PM 40.5540 -94.9130 79° East 485 558 37,000  Level FlightAware
05:06PM 40.5660 -94.8200 80° East 486 559 37,000  Level FlightAware
05:07PM 40.5820 -94.7050 80° East 489 563 37,000  Level FlightAware
05:08PM 40.5940 -94.6160 80° East 489 563 37,000  Level FlightAware
05:08PM 40.6110 -94.4980 79° East 490 564 37,000  Level FlightAware
05:09PM 40.6290 -94.3550 81° East 494 568 37,000  Level FlightAware
05:10PM 40.6410 -94.2620 80° East 494 568 37,000  Level FlightAware
05:10PM 40.6560 -94.1530 80° East 495 570 37,000  Level FlightAware
05:11PM 40.6700 -94.0470 80° East 496 571 37,000  Level FlightAware
05:11PM 40.6830 -93.9480 80° East 497 572 37,000  Level FlightAware
05:12PM 40.6950 -93.8560 80° East 497 572 37,000  Level FlightAware
05:13PM 40.7070 -93.7650 80° East 497 572 37,000  Level FlightAware
05:13PM 40.7270 -93.6040 81° East 497 572 37,000  Level FlightAware
05:14PM 40.7390 -93.5020 81° East 496 571 37,000  Level FlightAware
05:14PM 40.7500 -93.4150 80° East 496 571 37,000  Level FlightAware
05:15PM 40.7630 -93.3120 81° East 494 568 37,000  Level FlightAware
05:15PM 40.7740 -93.2230 81° East 494 568 37,000  Level FlightAware
05:16PM 40.7870 -93.1150 81° East 493 567 37,000  Level FlightAware
05:17PM 40.7980 -93.0210 81° East 492 566 37,000  Level FlightAware
05:17PM 40.8120 -92.9040 81° East 490 564 37,000  Level FlightAware
05:18PM 40.8250 -92.7970 81° East 489 563 37,000 -300 Level FlightAware
05:18PM 40.8360 -92.7080 81° East 492 566 36,700 -780 Descending FlightAware
05:19PM 40.8480 -92.5980 82° East 491 565 36,100 -960 Descending FlightAware
05:20PM 40.8610 -92.4920 81° East 497 572 35,600 -1,020 Descending FlightAware
05:20PM 40.8730 -92.3880 81° East 494 568 35,000 -1,020 Descending FlightAware
05:21PM 40.8860 -92.2720 82° East 498 573 34,400 -960 Descending FlightAware
05:21PM 40.8970 -92.1770 81° East 499 574 33,900 -1,020 Descending FlightAware
05:22PM 40.9090 -92.0710 81° East 500 575 33,300 -660 Descending FlightAware
05:23PM 40.9240 -91.9390 81° East 500 575 33,000 -720 Descending FlightAware
05:23PM 40.9380 -91.8070 82° East 500 575 32,300 -1,020 Descending FlightAware
05:24PM 40.9490 -91.7110 81° East 500 575 31,800 -900 Descending FlightAware
05:24PM 40.9600 -91.6080 82° East 500 575 31,300 -960 Descending FlightAware
05:25PM 40.9760 -91.4570 82° East 499 574 30,500 -960 Descending FlightAware
05:26PM 40.9870 -91.3540 82° East 501 577 30,000 -1,020 Descending FlightAware
05:26PM 40.9970 -91.2530 82° East 492 566 29,400 -1,080 Descending FlightAware
05:27PM 41.0070 -91.1590 82° East 470 541 28,800 -1,080 Descending FlightAware
05:28PM 41.0190 -91.0490 82° East 459 528 28,100 -1,200 Descending FlightAware
05:28PM 41.0290 -90.9490 82° East 456 525 27,400 -1,140 Descending FlightAware
05:29PM 41.0380 -90.8550 83° East 445 512 26,800 -1,500 Descending FlightAware
05:29PM 41.0490 -90.7530 82° East 435 501 25,600 -1,920 Descending FlightAware
05:30PM 41.0590 -90.6520 82° East 424 488 24,400 -2,040 Descending FlightAware
05:31PM 41.0680 -90.5630 82° East 429 494 23,100 -1,200 Descending FlightAware
05:31PM 41.0770 -90.4670 83° East 434 499 23,000 -120 Descending FlightAware
05:32PM 41.0860 -90.3810 82° East 438 504 23,000  Level FlightAware
05:32PM 41.0940 -90.2970 83° East 439 505 23,000 -420 Level FlightAware
05:33PM 41.1040 -90.1890 83° East 439 505 22,500 -1,440 Descending FlightAware
05:34PM 41.1130 -90.0900 83° East 431 496 21,200 -2,220 Descending FlightAware
05:34PM 41.1210 -90.0060 83° East 425 489 20,000 -2,220 Descending FlightAware
05:35PM 41.1300 -89.9120 83° East 417 480 18,600 -2,160 Descending FlightAware
05:35PM 41.1390 -89.8180 83° East 413 475 17,400 -1,800 Descending FlightAware
05:36PM 41.1460 -89.7370 83° East 413 475 16,600 -1,620 Descending FlightAware
05:36PM 41.1550 -89.6440 83° East 413 475 15,600 -1,620 Descending FlightAware
05:37PM 41.1620 -89.5610 84° East 417 480 14,700 -1,380 Descending FlightAware
05:38PM 41.1680 -89.4690 85° East 416 479 14,100 -1,020 Descending FlightAware
05:38PM 41.1740 -89.3780 85° East 410 472 13,500 -1,200 Descending FlightAware
05:39PM 41.1800 -89.2900 85° East 405 466 12,700 -1,440 Descending FlightAware
05:39PM 41.1850 -89.2120 85° East 398 458 11,900 -1,560 Descending FlightAware
05:40PM 41.1910 -89.1190 85° East 396 456 10,900 -1,500 Descending FlightAware
05:41PM 41.1960 -89.0390 85° East 390 449 10,100 -1,200 Descending FlightAware
05:41PM 41.1990 -88.9940 85° East 386 444 9,900 -300 Descending FlightAware
05:41PM 41.2030 -88.9360 85° East 381 438 9,900  Level FlightAware
05:42PM 41.2110 -88.9020 73° East 359 413 9,900  Level FlightAware
05:42PM 41.2190 -88.8780 66° East 341 392 9,900  Level FlightAware
05:42PM 41.2360 -88.8420 58° Northeast 317 365 9,900 -480 Level FlightAware
05:42PM 41.2510 -88.8130 55° Northeast 318 366 9,600 -720 Descending FlightAware
05:43PM 41.2630 -88.7880 57° Northeast 314 361 9,500 -540 Descending FlightAware
05:43PM 41.2790 -88.7550 57° Northeast 307 353 9,300 -780 Descending FlightAware
05:43PM 41.2880 -88.7370 56° Northeast 307 353 9,100 -780 Descending FlightAware
05:44PM 41.3060 -88.7000 57° Northeast 312 359 8,900 -660 Descending FlightAware
05:44PM 41.3250 -88.6610 57° Northeast 314 361 8,600 -960 Descending FlightAware
05:44PM 41.3410 -88.6280 57° Northeast 309 356 8,200 -1,140 Descending FlightAware
05:45PM 41.3500 -88.6090 58° Northeast 307 353 8,000 -1,380 Descending FlightAware
05:45PM 41.3680 -88.5720 57° Northeast 305 351 7,400 -1,380 Descending FlightAware
05:45PM 41.3770 -88.5530 58° Northeast 304 350 7,200 -1,080 Descending FlightAware
05:45PM 41.3890 -88.5280 57° Northeast 300 345 6,900 -840 Descending FlightAware
05:46PM 41.4030 -88.4950 60° Northeast 300 345 6,700 -780 Descending FlightAware
05:46PM 41.4160 -88.4640 61° Northeast 292 336 6,400 -900 Descending FlightAware
05:46PM 41.4290 -88.4330 61° Northeast 293 337 6,100 -840 Descending FlightAware
05:47PM 41.4410 -88.4070 58° Northeast 285 328 5,900 -360 Descending FlightAware
05:47PM 41.4520 -88.3800 61° Northeast 284 327 5,900  Level FlightAware
05:47PM 41.4670 -88.3480 58° Northeast 290 334 5,900 -180 Level FlightAware
05:48PM 41.4780 -88.3230 60° Northeast 288 331 5,800 -840 Descending FlightAware
05:48PM 41.4920 -88.2920 59° Northeast 286 329 5,400 -1,200 Descending FlightAware
05:48PM 41.5040 -88.2620 62° Northeast 282 325 5,000 -1,260 Descending FlightAware
05:49PM 41.5200 -88.2250 60° Northeast 277 319 4,500 -1,320 Descending FlightAware
05:49PM 41.5320 -88.1990 58° Northeast 275 316 4,100 -900 Descending FlightAware
05:49PM 41.5450 -88.1680 61° Northeast 265 305 3,900 -360 Descending FlightAware
05:50PM 41.5510 -88.1540 60° Northeast 261 300 3,900  Level FlightAware
05:50PM 41.5660 -88.1180 61° Northeast 256 295 3,900  Level FlightAware
05:50PM 41.5740 -88.1010 58° Northeast 262 302 3,900  Level FlightAware
05:50PM 41.5870 -88.0700 61° Northeast 263 303 3,900  Level FlightAware
05:51PM 41.6000 -88.0390 61° Northeast 266 306 3,900  Level FlightAware
05:51PM 41.6080 -88.0220 58° Northeast 267 307 3,900  Level FlightAware
05:51PM 41.6210 -87.9920 60° Northeast 263 303 3,900  Level FlightAware
05:52PM 41.6350 -87.9610 59° Northeast 242 278 3,900  Level FlightAware
05:52PM 41.6450 -87.9350 63° Northeast 236 272 3,900  Level FlightAware
05:52PM 41.6550 -87.9170 53° Northeast 233 268 3,900 -540 Level FlightAware
05:53PM 41.6700 -87.8970 45° Northeast 233 268 3,600 -1,140 Descending FlightAware
05:53PM 41.6800 -87.8840 44° Northeast 237 273 3,300 -1,380 Descending FlightAware
05:53PM 41.6980 -87.8620 42° Northeast 235 270 2,800 -1,140 Descending FlightAware
05:54PM 41.7140 -87.8420 43° Northeast 230 265 2,500 -1,080 Descending FlightAware
05:54PM 41.7270 -87.8250 44° Northeast 216 249 2,100 -1,320 Descending FlightAware
05:54PM 41.7380 -87.8120 41° Northeast 200 230 1,800 -900 Descending FlightAware
05:55PM 41.7500 -87.7960 45° Northeast 177 204 1,600 -360 Descending FlightAware
05:55PM 41.7580 -87.7850 46° Northeast 151 174 1,600 -780 Level FlightAware
05:55PM 41.7630 -87.7790 42° Northeast 146 168 1,300 -720 Descending FlightAware
05:55PM 41.7770 -87.7600 45° Northeast 163 188 1,200 120 Descending FlightAware
05:56PM 41.7790 -87.7520 71° East 171 197 1,400 1,500 Climbing FlightAware
05:56PM 41.7800 -87.7480 71° East 176 203 1,500 1,680 Climbing FlightAware
05:56PM 41.7800 -87.7430 90° East 186 214 1,600 1,800 Climbing FlightAware
05:56PM 41.7810 -87.7080 88° East 225 259 2,400 1,560 Climbing FlightAware
05:56PM 41.7820 -87.6820 87° East 237 273 2,800 1,260 Climbing FlightAware
05:57PM 41.7830 -87.6490 88° East 240 276 3,300 1,260 Climbing FlightAware
05:57PM 41.7840 -87.6180 88° East 240 276 3,700 1,260 Climbing FlightAware
05:57PM 41.7820 -87.6080 105° East 237 273 3,900 720 Climbing FlightAware
05:57PM 41.7760 -87.5980 129° Southeast 233 268 3,900  Level FlightAware
05:57PM 41.7700 -87.5930 148° Southeast 231 266 3,900  Level FlightAware
05:58PM 41.7660 -87.5910 160° South 228 262 3,900  Level FlightAware
05:58PM 41.7570 -87.5890 171° South 227 261 3,900  Level FlightAware
05:58PM 41.7400 -87.5870 175° South 228 262 3,900  Level FlightAware
05:58PM 41.7190 -87.5840 174° South 227 261 3,900  Level FlightAware
05:59PM 41.6980 -87.5810 174° South 225 259 3,900  Level FlightAware
05:59PM 41.6790 -87.5780 173° South 225 259 3,900  Level FlightAware
05:59PM 41.6610 -87.5830 192° South 225 259 3,900  Level FlightAware
06:00PM 41.6420 -87.5910 197° South 224 258 3,900  Level FlightAware
06:00PM 41.6360 -87.5970 217° Southwest 222 255 3,900  Level FlightAware
06:00PM 41.6300 -87.6080 234° Southwest 221 254 3,900  Level FlightAware
06:00PM 41.6210 -87.6260 236° Southwest 220 253 3,900  Level FlightAware
06:00PM 41.6130 -87.6420 236° Southwest 207 238 3,900  Level FlightAware
06:01PM 41.6000 -87.6660 234° Southwest 185 213 3,900  Level FlightAware
06:01PM 41.5900 -87.6850 235° Southwest 175 201 3,900  Level FlightAware
06:01PM 41.5810 -87.7060 240° Southwest 175 201 3,900  Level FlightAware
06:02PM 41.5820 -87.7160 278° West 172 198 3,900  Level FlightAware
06:02PM 41.5860 -87.7250 301° West 186 214 3,900  Level FlightAware
06:02PM 41.5980 -87.7440 310° West 199 229 3,900 -300 Level FlightAware
06:03PM 41.6100 -87.7650 307° West 202 232 3,700 -840 Descending FlightAware
06:03PM 41.6190 -87.7790 311° West 204 235 3,400 -1,260 Descending FlightAware
06:03PM 41.6240 -87.7890 304° West 200 230 3,200 -1,140 Descending FlightAware
06:03PM 41.6330 -87.8080 302° West 195 224 2,900 -840 Descending FlightAware
06:04PM 41.6410 -87.8270 299° West 181 208 2,700 -480 Descending FlightAware
06:04PM 41.6500 -87.8490 299° West 177 204 2,600 -420 Descending FlightAware
06:04PM 41.6600 -87.8690 304° West 178 205 2,400 -420 Descending FlightAware
06:04PM 41.6640 -87.8720 331° Northwest 182 209 2,400  Level FlightAware
06:04PM 41.6670 -87.8730 346° North 184 212 2,400  Level FlightAware
06:05PM 41.6880 -87.8660 14° North 186 214 2,400  Level FlightAware
06:05PM 41.7000 -87.8580 26° Northeast 184 212 2,400 -180 Level FlightAware
06:05PM 41.7130 -87.8440 39° Northeast 186 214 2,300 -600 Descending FlightAware
06:06PM 41.7250 -87.8280 45° Northeast 181 208 2,000 -900 Descending FlightAware
06:06PM 41.7380 -87.8110 44° Northeast 156 180 1,700 -900 Descending FlightAware
06:06PM 41.7480 -87.7990 42° Northeast 144 166 1,400 -900 Descending FlightAware
06:07PM 41.7590 -87.7850 44° Northeast 149 171 1,100 -480 Descending FlightAware
06:07PM 41.7720 -87.7680 44° Northeast 149 171 1,000 -240 Descending FlightAware